sensor_id;sensor_type;location;lat;lon;timestamp;P1;durP1;ratioP1;P2;durP2;ratioP2
54665;SDS011;40566;50.006;36.180;2022-09-09T00:03:17;9.25;;;4.10;;
54665;SDS011;40566;50.006;36.180;2022-09-09T00:08:38;7.95;;;3.72;;
54665;SDS011;40566;50.006;36.180;2022-09-09T00:14:00;8.88;;;3.70;;
54665;SDS011;40566;50.006;36.180;2022-09-09T00:24:30;10.02;;;4.18;;
54665;SDS011;40566;50.006;36.180;2022-09-09T00:29:47;9.10;;;3.63;;
54665;SDS011;40566;50.006;36.180;2022-09-09T00:34:56;11.20;;;3.92;;
54665;SDS011;40566;50.006;36.180;2022-09-09T00:40:05;7.80;;;3.63;;
54665;SDS011;40566;50.006;36.180;2022-09-09T01:00:55;12.98;;;4.20;;
54665;SDS011;40566;50.006;36.180;2022-09-09T01:06:14;8.65;;;4.15;;
54665;SDS011;40566;50.006;36.180;2022-09-09T01:11:22;10.10;;;3.92;;
54665;SDS011;40566;50.006;36.180;2022-09-09T01:16:25;7.13;;;3.88;;
54665;SDS011;40566;50.006;36.180;2022-09-09T01:26:52;8.88;;;4.30;;
54665;SDS011;40566;50.006;36.180;2022-09-09T01:42:12;8.38;;;3.72;;
54665;SDS011;40566;50.006;36.180;2022-09-09T01:47:15;8.52;;;3.95;;
54665;SDS011;40566;50.006;36.180;2022-09-09T01:52:15;7.32;;;4.05;;
54665;SDS011;40566;50.006;36.180;2022-09-09T01:57:38;9.85;;;4.20;;
54665;SDS011;40566;50.006;36.180;2022-09-09T02:13:30;9.48;;;3.47;;
54665;SDS011;40566;50.006;36.180;2022-09-09T02:18:42;8.43;;;3.63;;
54665;SDS011;40566;50.006;36.180;2022-09-09T02:23:49;8.93;;;4.05;;
54665;SDS011;40566;50.006;36.180;2022-09-09T02:28:52;9.85;;;3.90;;
54665;SDS011;40566;50.006;36.180;2022-09-09T02:33:57;8.57;;;3.72;;
54665;SDS011;40566;50.006;36.180;2022-09-09T02:39:00;10.52;;;3.92;;
54665;SDS011;40566;50.006;36.180;2022-09-09T02:44:14;10.00;;;3.97;;
54665;SDS011;40566;50.006;36.180;2022-09-09T02:54:38;15.75;;;7.18;;
54665;SDS011;40566;50.006;36.180;2022-09-09T02:59:39;21.92;;;9.88;;
54665;SDS011;40566;50.006;36.180;2022-09-09T03:04:40;14.38;;;5.65;;
54665;SDS011;40566;50.006;36.180;2022-09-09T03:09:44;10.43;;;4.53;;
54665;SDS011;40566;50.006;36.180;2022-09-09T03:14:45;9.05;;;4.55;;
54665;SDS011;40566;50.006;36.180;2022-09-09T03:19:46;14.90;;;5.05;;
54665;SDS011;40566;50.006;36.180;2022-09-09T03:24:49;9.45;;;4.10;;
54665;SDS011;40566;50.006;36.180;2022-09-09T03:29:50;9.88;;;3.85;;
54665;SDS011;40566;50.006;36.180;2022-09-09T03:34:52;10.20;;;3.80;;
54665;SDS011;40566;50.006;36.180;2022-09-09T03:39:52;9.32;;;3.17;;
54665;SDS011;40566;50.006;36.180;2022-09-09T03:44:54;10.88;;;3.83;;
54665;SDS011;40566;50.006;36.180;2022-09-09T03:49:57;10.57;;;3.83;;
54665;SDS011;40566;50.006;36.180;2022-09-09T03:54:58;13.20;;;6.22;;
54665;SDS011;40566;50.006;36.180;2022-09-09T03:59:58;11.23;;;4.43;;
54665;SDS011;40566;50.006;36.180;2022-09-09T04:05:01;7.80;;;3.55;;
54665;SDS011;40566;50.006;36.180;2022-09-09T04:10:01;9.38;;;3.95;;
54665;SDS011;40566;50.006;36.180;2022-09-09T04:15:02;10.93;;;3.72;;
54665;SDS011;40566;50.006;36.180;2022-09-09T04:20:03;11.73;;;4.13;;
54665;SDS011;40566;50.006;36.180;2022-09-09T04:25:05;9.75;;;3.53;;
54665;SDS011;40566;50.006;36.180;2022-09-09T04:30:06;10.07;;;3.83;;
54665;SDS011;40566;50.006;36.180;2022-09-09T04:35:07;8.93;;;2.90;;
54665;SDS011;40566;50.006;36.180;2022-09-09T04:40:08;7.22;;;2.60;;
54665;SDS011;40566;50.006;36.180;2022-09-09T04:45:09;7.05;;;3.00;;
54665;SDS011;40566;50.006;36.180;2022-09-09T04:50:11;7.43;;;2.70;;
54665;SDS011;40566;50.006;36.180;2022-09-09T04:55:12;7.25;;;3.03;;
54665;SDS011;40566;50.006;36.180;2022-09-09T05:00:13;8.77;;;3.08;;
54665;SDS011;40566;50.006;36.180;2022-09-09T05:05:14;7.35;;;3.28;;
54665;SDS011;40566;50.006;36.180;2022-09-09T05:10:15;8.23;;;3.53;;
54665;SDS011;40566;50.006;36.180;2022-09-09T05:15:18;11.05;;;3.30;;
54665;SDS011;40566;50.006;36.180;2022-09-09T05:20:19;7.05;;;3.17;;
54665;SDS011;40566;50.006;36.180;2022-09-09T05:25:20;7.90;;;3.20;;
54665;SDS011;40566;50.006;36.180;2022-09-09T05:30:22;6.72;;;2.92;;
54665;SDS011;40566;50.006;36.180;2022-09-09T05:35:26;9.05;;;3.05;;
54665;SDS011;40566;50.006;36.180;2022-09-09T05:40:27;8.68;;;3.30;;
54665;SDS011;40566;50.006;36.180;2022-09-09T05:45:29;8.27;;;3.30;;
54665;SDS011;40566;50.006;36.180;2022-09-09T05:50:30;7.20;;;3.15;;
54665;SDS011;40566;50.006;36.180;2022-09-09T05:55:30;7.10;;;3.42;;
54665;SDS011;40566;50.006;36.180;2022-09-09T06:00:31;11.82;;;4.00;;
54665;SDS011;40566;50.006;36.180;2022-09-09T06:05:32;6.80;;;3.20;;
54665;SDS011;40566;50.006;36.180;2022-09-09T06:10:34;9.82;;;3.35;;
54665;SDS011;40566;50.006;36.180;2022-09-09T06:15:34;9.38;;;3.63;;
54665;SDS011;40566;50.006;36.180;2022-09-09T06:20:35;10.18;;;3.47;;
54665;SDS011;40566;50.006;36.180;2022-09-09T06:25:36;5.32;;;1.67;;
54665;SDS011;40566;50.006;36.180;2022-09-09T06:30:37;6.32;;;1.50;;
54665;SDS011;40566;50.006;36.180;2022-09-09T06:35:38;2.47;;;0.95;;
54665;SDS011;40566;50.006;36.180;2022-09-09T06:40:40;6.28;;;2.10;;
54665;SDS011;40566;50.006;36.180;2022-09-09T06:45:41;3.28;;;0.80;;
54665;SDS011;40566;50.006;36.180;2022-09-09T06:50:41;2.28;;;0.90;;
54665;SDS011;40566;50.006;36.180;2022-09-09T06:55:42;4.18;;;0.90;;
54665;SDS011;40566;50.006;36.180;2022-09-09T07:00:44;2.85;;;1.08;;
54665;SDS011;40566;50.006;36.180;2022-09-09T07:05:53;2.90;;;1.00;;
54665;SDS011;40566;50.006;36.180;2022-09-09T07:10:54;1.17;;;0.70;;
54665;SDS011;40566;50.006;36.180;2022-09-09T07:16:05;2.97;;;1.27;;
54665;SDS011;40566;50.006;36.180;2022-09-09T07:21:07;2.13;;;0.80;;
54665;SDS011;40566;50.006;36.180;2022-09-09T07:26:14;3.67;;;1.38;;
54665;SDS011;40566;50.006;36.180;2022-09-09T07:31:17;1.52;;;0.77;;
54665;SDS011;40566;50.006;36.180;2022-09-09T07:36:21;2.03;;;0.75;;
54665;SDS011;40566;50.006;36.180;2022-09-09T07:41:25;1.30;;;0.52;;
54665;SDS011;40566;50.006;36.180;2022-09-09T07:46:33;2.90;;;0.90;;
54665;SDS011;40566;50.006;36.180;2022-09-09T07:51:35;1.10;;;0.52;;
54665;SDS011;40566;50.006;36.180;2022-09-09T07:56:37;2.58;;;0.98;;
54665;SDS011;40566;50.006;36.180;2022-09-09T08:01:40;1.33;;;0.60;;
54665;SDS011;40566;50.006;36.180;2022-09-09T08:06:46;1.60;;;0.70;;
54665;SDS011;40566;50.006;36.180;2022-09-09T08:11:48;1.95;;;0.73;;
54665;SDS011;40566;50.006;36.180;2022-09-09T08:16:49;5.57;;;1.10;;
54665;SDS011;40566;50.006;36.180;2022-09-09T08:21:50;1.73;;;0.93;;
54665;SDS011;40566;50.006;36.180;2022-09-09T08:26:51;3.50;;;1.20;;
54665;SDS011;40566;50.006;36.180;2022-09-09T08:31:53;4.22;;;1.23;;
54665;SDS011;40566;50.006;36.180;2022-09-09T08:36:57;2.95;;;1.35;;
54665;SDS011;40566;50.006;36.180;2022-09-09T08:57:57;0.73;;;0.65;;
54665;SDS011;40566;50.006;36.180;2022-09-09T09:03:21;1.00;;;0.50;;
54665;SDS011;40566;50.006;36.180;2022-09-09T09:08:31;2.57;;;0.70;;
54665;SDS011;40566;50.006;36.180;2022-09-09T09:13:44;6.40;;;2.13;;
54665;SDS011;40566;50.006;36.180;2022-09-09T09:18:52;2.97;;;0.65;;
54665;SDS011;40566;50.006;36.180;2022-09-09T09:23:56;1.75;;;0.88;;
54665;SDS011;40566;50.006;36.180;2022-09-09T09:28:59;3.13;;;0.63;;
54665;SDS011;40566;50.006;36.180;2022-09-09T09:34:09;2.97;;;1.05;;
54665;SDS011;40566;50.006;36.180;2022-09-09T09:39:22;4.50;;;1.00;;
54665;SDS011;40566;50.006;36.180;2022-09-09T09:44:28;3.00;;;1.17;;
54665;SDS011;40566;50.006;36.180;2022-09-09T09:49:32;1.55;;;0.77;;
54665;SDS011;40566;50.006;36.180;2022-09-09T09:54:34;3.25;;;1.02;;
54665;SDS011;40566;50.006;36.180;2022-09-09T09:59:38;5.20;;;1.48;;
54665;SDS011;40566;50.006;36.180;2022-09-09T10:04:39;3.40;;;1.02;;
54665;SDS011;40566;50.006;36.180;2022-09-09T10:09:41;10.20;;;3.97;;
54665;SDS011;40566;50.006;36.180;2022-09-09T11:11:17;3.80;;;1.45;;
54665;SDS011;40566;50.006;36.180;2022-09-09T11:16:30;9.05;;;1.13;;
54665;SDS011;40566;50.006;36.180;2022-09-09T11:21:46;1.17;;;0.63;;
54665;SDS011;40566;50.006;36.180;2022-09-09T11:32:03;2.75;;;0.80;;
54665;SDS011;40566;50.006;36.180;2022-09-09T11:37:34;2.15;;;0.70;;
54665;SDS011;40566;50.006;36.180;2022-09-09T11:42:50;2.42;;;0.90;;
54665;SDS011;40566;50.006;36.180;2022-09-09T11:48:26;3.20;;;1.00;;
54665;SDS011;40566;50.006;36.180;2022-09-09T11:53:31;2.60;;;0.80;;
54665;SDS011;40566;50.006;36.180;2022-09-09T11:58:35;5.55;;;1.20;;
54665;SDS011;40566;50.006;36.180;2022-09-09T12:08:45;3.47;;;1.05;;
54665;SDS011;40566;50.006;36.180;2022-09-09T12:13:59;2.13;;;0.93;;
54665;SDS011;40566;50.006;36.180;2022-09-09T12:24:38;1.58;;;0.80;;
54665;SDS011;40566;50.006;36.180;2022-09-09T12:35:12;3.25;;;1.08;;
54665;SDS011;40566;50.006;36.180;2022-09-09T12:45:26;4.07;;;1.80;;
54665;SDS011;40566;50.006;36.180;2022-09-09T12:55:31;3.15;;;0.80;;
54665;SDS011;40566;50.006;36.180;2022-09-09T13:00:35;3.60;;;0.80;;
54665;SDS011;40566;50.006;36.180;2022-09-09T13:05:37;1.98;;;0.98;;
54665;SDS011;40566;50.006;36.180;2022-09-09T13:10:46;4.25;;;1.80;;
54665;SDS011;40566;50.006;36.180;2022-09-09T13:16:00;5.07;;;1.75;;
54665;SDS011;40566;50.006;36.180;2022-09-09T13:21:02;4.13;;;1.45;;
54665;SDS011;40566;50.006;36.180;2022-09-09T13:26:04;6.20;;;1.80;;
54665;SDS011;40566;50.006;36.180;2022-09-09T13:36:33;2.58;;;1.23;;
54665;SDS011;40566;50.006;36.180;2022-09-09T13:41:42;2.05;;;1.05;;
54665;SDS011;40566;50.006;36.180;2022-09-09T13:46:44;3.38;;;1.20;;
54665;SDS011;40566;50.006;36.180;2022-09-09T13:52:03;5.75;;;1.27;;
54665;SDS011;40566;50.006;36.180;2022-09-09T13:57:15;3.40;;;1.60;;
54665;SDS011;40566;50.006;36.180;2022-09-09T14:02:18;3.05;;;1.40;;
54665;SDS011;40566;50.006;36.180;2022-09-09T14:07:19;4.25;;;1.80;;
54665;SDS011;40566;50.006;36.180;2022-09-09T14:12:19;5.63;;;1.40;;
54665;SDS011;40566;50.006;36.180;2022-09-09T14:17:21;4.45;;;1.40;;
54665;SDS011;40566;50.006;36.180;2022-09-09T14:22:23;3.95;;;1.15;;
54665;SDS011;40566;50.006;36.180;2022-09-09T14:27:24;2.90;;;1.30;;
54665;SDS011;40566;50.006;36.180;2022-09-09T14:32:26;4.43;;;1.25;;
54665;SDS011;40566;50.006;36.180;2022-09-09T14:37:27;3.80;;;1.10;;
54665;SDS011;40566;50.006;36.180;2022-09-09T14:42:28;2.40;;;1.05;;
54665;SDS011;40566;50.006;36.180;2022-09-09T14:47:30;5.38;;;1.13;;
54665;SDS011;40566;50.006;36.180;2022-09-09T14:52:31;4.28;;;1.10;;
54665;SDS011;40566;50.006;36.180;2022-09-09T14:57:31;2.20;;;1.20;;
54665;SDS011;40566;50.006;36.180;2022-09-09T15:02:32;2.83;;;1.10;;
54665;SDS011;40566;50.006;36.180;2022-09-09T15:07:33;3.45;;;1.20;;
54665;SDS011;40566;50.006;36.180;2022-09-09T15:12:34;10.57;;;2.13;;
54665;SDS011;40566;50.006;36.180;2022-09-09T15:17:35;7.10;;;1.50;;
54665;SDS011;40566;50.006;36.180;2022-09-09T15:22:36;2.83;;;1.20;;
54665;SDS011;40566;50.006;36.180;2022-09-09T15:27:38;2.20;;;1.08;;
54665;SDS011;40566;50.006;36.180;2022-09-09T15:32:39;3.30;;;1.30;;
54665;SDS011;40566;50.006;36.180;2022-09-09T15:37:39;2.95;;;1.20;;
54665;SDS011;40566;50.006;36.180;2022-09-09T15:42:40;7.13;;;1.38;;
54665;SDS011;40566;50.006;36.180;2022-09-09T15:47:41;6.75;;;1.15;;
54665;SDS011;40566;50.006;36.180;2022-09-09T15:52:41;4.63;;;1.30;;
54665;SDS011;40566;50.006;36.180;2022-09-09T15:57:42;3.95;;;1.30;;
54665;SDS011;40566;50.006;36.180;2022-09-09T16:02:42;2.65;;;0.80;;
54665;SDS011;40566;50.006;36.180;2022-09-09T16:07:43;6.13;;;2.10;;
54665;SDS011;40566;50.006;36.180;2022-09-09T16:12:45;3.22;;;1.30;;
54665;SDS011;40566;50.006;36.180;2022-09-09T16:17:45;4.57;;;1.13;;
54665;SDS011;40566;50.006;36.180;2022-09-09T16:22:46;4.90;;;1.50;;
54665;SDS011;40566;50.006;36.180;2022-09-09T16:27:46;3.00;;;1.35;;
54665;SDS011;40566;50.006;36.180;2022-09-09T16:32:47;3.45;;;1.30;;
54665;SDS011;40566;50.006;36.180;2022-09-09T16:37:47;2.78;;;1.20;;
54665;SDS011;40566;50.006;36.180;2022-09-09T16:42:49;6.72;;;1.20;;
54665;SDS011;40566;50.006;36.180;2022-09-09T16:47:50;4.50;;;1.27;;
54665;SDS011;40566;50.006;36.180;2022-09-09T16:52:51;3.67;;;1.35;;
54665;SDS011;40566;50.006;36.180;2022-09-09T16:57:52;4.05;;;1.48;;
54665;SDS011;40566;50.006;36.180;2022-09-09T17:02:54;3.95;;;1.40;;
54665;SDS011;40566;50.006;36.180;2022-09-09T17:07:54;3.17;;;1.30;;
54665;SDS011;40566;50.006;36.180;2022-09-09T17:13:00;3.65;;;1.65;;
54665;SDS011;40566;50.006;36.180;2022-09-09T17:18:01;4.53;;;1.52;;
54665;SDS011;40566;50.006;36.180;2022-09-09T17:23:02;3.05;;;1.65;;
54665;SDS011;40566;50.006;36.180;2022-09-09T17:28:03;5.85;;;1.55;;
54665;SDS011;40566;50.006;36.180;2022-09-09T17:33:04;5.30;;;1.60;;
54665;SDS011;40566;50.006;36.180;2022-09-09T17:38:07;4.85;;;1.52;;
54665;SDS011;40566;50.006;36.180;2022-09-09T17:43:08;4.47;;;1.50;;
54665;SDS011;40566;50.006;36.180;2022-09-09T17:48:09;4.13;;;1.40;;
54665;SDS011;40566;50.006;36.180;2022-09-09T17:53:10;10.90;;;1.75;;
54665;SDS011;40566;50.006;36.180;2022-09-09T17:58:12;8.45;;;1.70;;
54665;SDS011;40566;50.006;36.180;2022-09-09T18:03:12;13.88;;;2.03;;
54665;SDS011;40566;50.006;36.180;2022-09-09T18:08:13;9.27;;;2.20;;
54665;SDS011;40566;50.006;36.180;2022-09-09T18:13:14;7.47;;;1.90;;
54665;SDS011;40566;50.006;36.180;2022-09-09T18:18:15;7.35;;;2.00;;
54665;SDS011;40566;50.006;36.180;2022-09-09T18:23:16;4.93;;;1.92;;
54665;SDS011;40566;50.006;36.180;2022-09-09T18:28:17;6.25;;;1.88;;
54665;SDS011;40566;50.006;36.180;2022-09-09T18:33:19;4.90;;;1.63;;
54665;SDS011;40566;50.006;36.180;2022-09-09T18:38:20;7.28;;;1.95;;
54665;SDS011;40566;50.006;36.180;2022-09-09T18:43:20;4.70;;;2.03;;
54665;SDS011;40566;50.006;36.180;2022-09-09T18:48:21;4.97;;;2.00;;
54665;SDS011;40566;50.006;36.180;2022-09-09T18:53:22;5.63;;;1.75;;
54665;SDS011;40566;50.006;36.180;2022-09-09T18:58:22;6.55;;;1.88;;
54665;SDS011;40566;50.006;36.180;2022-09-09T19:03:24;4.85;;;1.80;;
54665;SDS011;40566;50.006;36.180;2022-09-09T19:08:25;7.63;;;2.35;;
54665;SDS011;40566;50.006;36.180;2022-09-09T19:13:28;6.30;;;2.25;;
54665;SDS011;40566;50.006;36.180;2022-09-09T19:18:28;7.72;;;2.60;;
54665;SDS011;40566;50.006;36.180;2022-09-09T19:23:29;4.60;;;2.08;;
54665;SDS011;40566;50.006;36.180;2022-09-09T19:28:34;7.43;;;2.42;;
54665;SDS011;40566;50.006;36.180;2022-09-09T19:33:35;4.90;;;1.85;;
54665;SDS011;40566;50.006;36.180;2022-09-09T19:38:36;7.55;;;2.08;;
54665;SDS011;40566;50.006;36.180;2022-09-09T19:43:37;5.93;;;2.00;;
54665;SDS011;40566;50.006;36.180;2022-09-09T19:48:39;5.35;;;2.08;;
54665;SDS011;40566;50.006;36.180;2022-09-09T19:53:41;4.28;;;1.90;;
54665;SDS011;40566;50.006;36.180;2022-09-09T19:58:44;5.28;;;2.10;;
54665;SDS011;40566;50.006;36.180;2022-09-09T20:03:47;6.78;;;2.10;;
54665;SDS011;40566;50.006;36.180;2022-09-09T20:08:50;7.30;;;2.15;;
54665;SDS011;40566;50.006;36.180;2022-09-09T20:13:52;5.32;;;2.20;;
54665;SDS011;40566;50.006;36.180;2022-09-09T20:18:54;6.20;;;2.33;;
54665;SDS011;40566;50.006;36.180;2022-09-09T20:24:01;5.30;;;2.20;;
54665;SDS011;40566;50.006;36.180;2022-09-09T20:29:06;5.28;;;2.10;;
54665;SDS011;40566;50.006;36.180;2022-09-09T20:34:15;5.15;;;2.00;;
54665;SDS011;40566;50.006;36.180;2022-09-09T20:39:24;5.00;;;2.10;;
54665;SDS011;40566;50.006;36.180;2022-09-09T20:44:26;6.13;;;2.05;;
54665;SDS011;40566;50.006;36.180;2022-09-09T20:49:28;4.88;;;1.88;;
54665;SDS011;40566;50.006;36.180;2022-09-09T20:54:29;4.72;;;2.25;;
54665;SDS011;40566;50.006;36.180;2022-09-09T20:59:29;5.32;;;2.20;;
54665;SDS011;40566;50.006;36.180;2022-09-09T21:04:30;8.50;;;2.30;;
54665;SDS011;40566;50.006;36.180;2022-09-09T21:09:31;8.60;;;2.47;;
54665;SDS011;40566;50.006;36.180;2022-09-09T21:14:31;9.07;;;2.85;;
54665;SDS011;40566;50.006;36.180;2022-09-09T21:19:32;8.73;;;2.50;;
54665;SDS011;40566;50.006;36.180;2022-09-09T21:24:34;7.28;;;2.40;;
54665;SDS011;40566;50.006;36.180;2022-09-09T21:29:35;6.93;;;2.42;;
54665;SDS011;40566;50.006;36.180;2022-09-09T21:34:35;6.80;;;2.20;;
54665;SDS011;40566;50.006;36.180;2022-09-09T21:39:36;8.48;;;2.55;;
54665;SDS011;40566;50.006;36.180;2022-09-09T21:44:37;5.60;;;2.30;;
54665;SDS011;40566;50.006;36.180;2022-09-09T21:49:37;4.68;;;2.10;;
54665;SDS011;40566;50.006;36.180;2022-09-09T21:54:38;4.22;;;2.10;;
54665;SDS011;40566;50.006;36.180;2022-09-09T21:59:43;4.88;;;2.10;;
54665;SDS011;40566;50.006;36.180;2022-09-09T22:04:43;6.50;;;2.45;;
54665;SDS011;40566;50.006;36.180;2022-09-09T22:09:44;8.90;;;2.25;;
54665;SDS011;40566;50.006;36.180;2022-09-09T22:14:45;6.90;;;2.13;;
54665;SDS011;40566;50.006;36.180;2022-09-09T22:19:46;4.95;;;2.30;;
54665;SDS011;40566;50.006;36.180;2022-09-09T22:24:46;5.40;;;2.30;;
54665;SDS011;40566;50.006;36.180;2022-09-09T22:29:47;6.53;;;2.30;;
54665;SDS011;40566;50.006;36.180;2022-09-09T22:34:47;5.55;;;2.53;;
54665;SDS011;40566;50.006;36.180;2022-09-09T22:39:50;6.47;;;2.25;;
54665;SDS011;40566;50.006;36.180;2022-09-09T22:44:50;5.30;;;2.00;;
54665;SDS011;40566;50.006;36.180;2022-09-09T22:49:51;5.47;;;2.25;;
54665;SDS011;40566;50.006;36.180;2022-09-09T22:54:52;4.70;;;2.42;;
54665;SDS011;40566;50.006;36.180;2022-09-09T22:59:53;6.13;;;2.30;;
54665;SDS011;40566;50.006;36.180;2022-09-09T23:04:53;5.05;;;2.25;;
54665;SDS011;40566;50.006;36.180;2022-09-09T23:09:54;6.57;;;2.58;;
54665;SDS011;40566;50.006;36.180;2022-09-09T23:14:54;6.07;;;2.38;;
54665;SDS011;40566;50.006;36.180;2022-09-09T23:19:56;4.85;;;2.30;;
54665;SDS011;40566;50.006;36.180;2022-09-09T23:24:57;5.28;;;2.30;;
54665;SDS011;40566;50.006;36.180;2022-09-09T23:29:57;5.38;;;2.20;;
54665;SDS011;40566;50.006;36.180;2022-09-09T23:34:58;5.05;;;2.25;;
54665;SDS011;40566;50.006;36.180;2022-09-09T23:39:58;5.38;;;2.40;;
54665;SDS011;40566;50.006;36.180;2022-09-09T23:44:59;4.65;;;2.33;;
54665;SDS011;40566;50.006;36.180;2022-09-09T23:49:59;5.30;;;2.63;;
54665;SDS011;40566;50.006;36.180;2022-09-09T23:55:01;6.65;;;2.47;;
